createdAt,value
2022-12-31T00:01:26.064Z,98.49
2022-12-31T00:03:55.591Z,98.36
2022-12-31T00:06:30.811Z,98.33
2022-12-31T00:09:02.007Z,98.44
2022-12-31T00:11:32.095Z,98.47
2022-12-31T00:14:00.656Z,98.39
2022-12-31T00:16:33.367Z,98.47
2022-12-31T00:19:02.635Z,98.68
2022-12-31T00:21:33.478Z,98.58
2022-12-31T00:24:03.551Z,98.30
2022-12-31T00:26:34.342Z,98.27
2022-12-31T00:29:04.193Z,98.58
2022-12-31T00:31:36.412Z,98.82
2022-12-31T00:34:05.664Z,99.11
2022-12-31T00:36:37.594Z,99.04
2022-12-31T00:39:08.781Z,99.13
2022-12-31T00:41:37.615Z,99.36
2022-12-31T00:44:06.076Z,99.35
2022-12-31T00:49:02.551Z,98.99
2022-12-31T00:51:30.963Z,98.72
2022-12-31T00:53:59.467Z,98.53
2022-12-31T00:56:31.889Z,98.38
2022-12-31T00:59:01.070Z,98.36
2022-12-31T01:01:34.732Z,98.60
2022-12-31T01:04:16.263Z,98.66
2022-12-31T01:06:45.221Z,98.97
2022-12-31T01:09:16.364Z,99.10
2022-12-31T01:11:44.775Z,99.79
2022-12-31T01:14:19.408Z,100.00
2022-12-31T01:16:53.523Z,100.00
2022-12-31T01:19:24.839Z,100.00
2022-12-31T01:21:54.110Z,100.00
2022-12-31T01:24:22.688Z,100.00
2022-12-31T01:26:51.642Z,100.00
2022-12-31T01:29:20.025Z,100.00
2022-12-31T01:31:48.350Z,99.93
2022-12-31T01:34:16.680Z,99.98
2022-12-31T01:36:45.902Z,99.99
2022-12-31T01:39:14.273Z,100.00
2022-12-31T01:41:46.088Z,100.00
2022-12-31T01:44:26.406Z,100.00
2022-12-31T01:47:06.513Z,100.00
2022-12-31T01:49:37.234Z,100.00
2022-12-31T01:52:17.665Z,100.00
2022-12-31T01:54:52.620Z,100.00
2022-12-31T01:57:22.833Z,100.00
2022-12-31T01:59:52.608Z,99.99
2022-12-31T02:02:21.111Z,99.96
2022-12-31T02:04:53.495Z,99.73
2022-12-31T02:07:23.353Z,99.45
2022-12-31T02:09:52.244Z,99.21
2022-12-31T02:12:21.577Z,98.96
2022-12-31T02:14:53.478Z,98.58
2022-12-31T02:17:37.140Z,98.37
2022-12-31T02:20:30.131Z,98.10
2022-12-31T02:23:16.179Z,97.76
2022-12-31T02:26:12.856Z,97.67
2022-12-31T02:29:00.107Z,97.47
2022-12-31T02:31:37.745Z,97.17
2022-12-31T02:34:14.330Z,97.05
2022-12-31T02:36:47.369Z,97.21
2022-12-31T02:39:16.965Z,97.20
2022-12-31T02:41:52.566Z,97.19
2022-12-31T02:44:28.270Z,97.17
2022-12-31T02:47:35.756Z,97.14
2022-12-31T02:50:32.275Z,97.15
2022-12-31T02:53:37.783Z,97.12
2022-12-31T02:56:28.087Z,97.03
2022-12-31T02:59:41.403Z,96.86
2022-12-31T03:02:15.932Z,96.69
2022-12-31T03:04:57.878Z,96.65
2022-12-31T03:07:32.114Z,96.73
2022-12-31T03:10:01.964Z,96.85
2022-12-31T03:12:47.200Z,96.80
2022-12-31T03:15:23.549Z,96.69
2022-12-31T03:17:57.097Z,96.58
2022-12-31T03:20:47.459Z,96.54
2022-12-31T03:23:21.098Z,96.47
2022-12-31T03:25:49.512Z,96.33
2022-12-31T03:28:20.937Z,96.27
2022-12-31T03:30:53.522Z,95.98
2022-12-31T03:33:23.542Z,95.64
2022-12-31T03:35:54.307Z,95.36
2022-12-31T03:38:22.914Z,95.17
2022-12-31T03:40:53.682Z,95.06
2022-12-31T03:43:22.167Z,95.02
2022-12-31T03:45:54.257Z,95.02
2022-12-31T03:48:23.983Z,94.98
2022-12-31T03:50:52.468Z,95.05
2022-12-31T03:53:20.991Z,95.00
2022-12-31T03:55:53.993Z,94.91
2022-12-31T03:58:22.857Z,95.10
2022-12-31T04:00:51.286Z,95.17
2022-12-31T04:03:19.669Z,95.22
2022-12-31T04:05:55.955Z,95.27
2022-12-31T04:08:24.620Z,95.26
2022-12-31T04:10:53.088Z,95.17
2022-12-31T04:13:21.427Z,95.02
2022-12-31T04:15:52.045Z,94.92
2022-12-31T04:18:20.530Z,94.78
2022-12-31T04:20:49.775Z,94.76
2022-12-31T04:23:18.239Z,94.75
2022-12-31T04:25:46.764Z,94.69
2022-12-31T04:28:15.210Z,94.72
2022-12-31T04:30:44.674Z,94.64
2022-12-31T04:33:13.103Z,94.65
2022-12-31T04:35:41.366Z,94.52
2022-12-31T04:38:09.660Z,94.39
2022-12-31T04:40:57.929Z,94.26
2022-12-31T04:43:26.290Z,94.32
2022-12-31T04:45:54.754Z,94.68
2022-12-31T04:48:25.324Z,94.79
2022-12-31T04:50:53.643Z,95.41
2022-12-31T04:53:24.870Z,95.79
2022-12-31T04:55:53.201Z,95.64
2022-12-31T04:58:22.385Z,95.24
2022-12-31T05:00:54.796Z,94.54
2022-12-31T05:03:25.770Z,93.94
2022-12-31T05:06:00.899Z,93.34
2022-12-31T05:08:29.173Z,92.97
2022-12-31T05:10:58.302Z,92.77
2022-12-31T05:13:32.977Z,92.98
2022-12-31T05:16:02.949Z,93.19
2022-12-31T05:18:32.828Z,93.31
2022-12-31T05:21:02.029Z,93.74
2022-12-31T05:23:30.370Z,94.16
2022-12-31T05:25:59.825Z,94.64
2022-12-31T05:28:28.315Z,95.17
2022-12-31T05:30:57.153Z,95.39
2022-12-31T05:33:25.511Z,95.17
2022-12-31T05:35:55.021Z,94.40
2022-12-31T05:38:23.442Z,93.81
2022-12-31T05:41:00.504Z,93.22
2022-12-31T05:43:29.725Z,92.32
2022-12-31T05:46:02.308Z,91.92
2022-12-31T05:48:31.463Z,90.71
2022-12-31T05:50:59.817Z,90.65
2022-12-31T05:53:28.199Z,89.75
2022-12-31T05:55:56.602Z,89.06
2022-12-31T05:58:24.930Z,88.65
2022-12-31T06:00:53.262Z,88.21
2022-12-31T06:03:21.844Z,88.50
2022-12-31T06:05:50.222Z,88.40
2022-12-31T06:08:18.561Z,88.10
2022-12-31T06:10:47.537Z,87.53
2022-12-31T06:13:15.829Z,87.19
2022-12-31T06:15:44.097Z,87.08
2022-12-31T06:18:12.500Z,86.51
2022-12-31T06:20:40.811Z,86.58
2022-12-31T06:23:09.115Z,86.80
2022-12-31T06:25:37.918Z,86.51
2022-12-31T06:28:06.773Z,86.24
2022-12-31T06:30:35.087Z,86.41
2022-12-31T06:33:03.507Z,86.17
2022-12-31T06:35:31.876Z,86.49
2022-12-31T06:38:00.613Z,86.35
2022-12-31T06:40:29.115Z,86.43
2022-12-31T06:43:00.183Z,86.43
2022-12-31T06:45:29.137Z,86.46
2022-12-31T06:47:57.379Z,86.51
2022-12-31T06:50:25.687Z,86.46
2022-12-31T06:52:55.424Z,86.43
2022-12-31T06:55:24.221Z,86.35
2022-12-31T06:57:53.105Z,86.32
2022-12-31T07:00:21.889Z,86.48
2022-12-31T07:03:05.937Z,86.54
2022-12-31T07:06:12.758Z,86.71
2022-12-31T07:08:47.294Z,86.72
2022-12-31T07:11:52.941Z,86.67
2022-12-31T07:14:28.963Z,86.68
2022-12-31T07:17:20.045Z,86.80
2022-12-31T07:20:12.009Z,87.00
2022-12-31T07:22:40.797Z,87.60
2022-12-31T07:25:19.603Z,88.12
2022-12-31T07:28:06.281Z,88.37
2022-12-31T07:30:43.372Z,88.42
2022-12-31T07:33:17.744Z,88.52
2022-12-31T07:36:08.783Z,88.58
2022-12-31T07:39:01.945Z,88.55
2022-12-31T07:41:59.973Z,88.45
2022-12-31T07:44:48.334Z,88.17
2022-12-31T07:47:22.970Z,88.17
2022-12-31T07:49:52.768Z,88.03
2022-12-31T07:52:21.997Z,88.04
2022-12-31T07:54:50.354Z,87.68
2022-12-31T07:57:21.612Z,87.79
2022-12-31T08:00:03.800Z,87.47
2022-12-31T08:02:59.649Z,87.28
2022-12-31T08:05:37.292Z,86.99
2022-12-31T08:08:05.586Z,86.82
2022-12-31T08:10:45.284Z,86.76
2022-12-31T08:13:14.663Z,86.80
2022-12-31T08:15:46.965Z,86.61
2022-12-31T08:18:15.472Z,86.79
2022-12-31T08:21:10.084Z,86.67
2022-12-31T08:24:09.613Z,86.75
2022-12-31T08:26:40.419Z,86.67
2022-12-31T08:29:23.141Z,86.28
2022-12-31T08:32:00.924Z,85.96
2022-12-31T08:34:49.637Z,85.84
2022-12-31T08:37:26.849Z,85.75
2022-12-31T08:40:20.467Z,85.53
2022-12-31T08:42:51.738Z,85.25
2022-12-31T08:45:42.350Z,84.98
2022-12-31T08:48:27.648Z,84.49
2022-12-31T08:50:56.109Z,83.81
2022-12-31T08:53:26.299Z,84.19
2022-12-31T08:56:07.919Z,84.05
2022-12-31T08:58:46.343Z,84.01
2022-12-31T09:01:19.208Z,83.79
2022-12-31T09:04:11.238Z,83.30
2022-12-31T09:07:04.823Z,83.51
2022-12-31T09:09:40.231Z,84.03
2022-12-31T09:12:22.830Z,83.22
2022-12-31T09:15:33.987Z,82.67
2022-12-31T09:18:05.749Z,82.23
2022-12-31T09:20:44.943Z,81.63
2022-12-31T09:23:13.884Z,81.61
2022-12-31T09:25:58.163Z,81.65
2022-12-31T09:28:51.320Z,80.93
2022-12-31T09:31:39.137Z,80.44
2022-12-31T09:34:13.258Z,79.64
2022-12-31T09:36:57.227Z,79.60
2022-12-31T09:39:46.396Z,80.06
2022-12-31T09:42:54.643Z,79.77
2022-12-31T09:45:53.421Z,79.90
2022-12-31T09:48:43.420Z,79.89
2022-12-31T09:51:31.343Z,80.04
2022-12-31T09:54:18.365Z,80.30
2022-12-31T09:57:09.504Z,79.35
2022-12-31T09:59:53.695Z,79.98
2022-12-31T10:02:54.477Z,80.47
2022-12-31T10:05:47.107Z,80.34
2022-12-31T10:08:54.616Z,80.54
2022-12-31T10:12:19.141Z,80.29
2022-12-31T10:14:50.939Z,79.84
2022-12-31T10:17:46.281Z,79.91
2022-12-31T10:20:45.308Z,80.24
2022-12-31T10:23:20.307Z,80.13
2022-12-31T10:26:02.634Z,80.08
2022-12-31T10:28:46.756Z,79.81
2022-12-31T10:31:15.182Z,79.99
2022-12-31T10:33:52.028Z,80.23
2022-12-31T10:36:52.564Z,79.83
2022-12-31T10:39:38.503Z,80.06
2022-12-31T10:42:34.074Z,80.12
2022-12-31T10:45:45.049Z,80.23
2022-12-31T10:48:35.354Z,80.49
2022-12-31T10:51:08.377Z,80.04
2022-12-31T10:53:58.732Z,80.34
2022-12-31T10:56:47.996Z,80.48
2022-12-31T10:59:31.557Z,80.63
2022-12-31T11:02:18.859Z,80.64
2022-12-31T11:05:32.351Z,80.49
2022-12-31T11:08:25.844Z,80.55
2022-12-31T11:11:06.379Z,80.77
2022-12-31T11:13:53.419Z,80.16
2022-12-31T11:16:41.621Z,79.75
2022-12-31T11:19:34.605Z,80.12
2022-12-31T11:22:15.991Z,80.24
2022-12-31T11:25:05.812Z,80.47
2022-12-31T11:28:01.983Z,80.61
2022-12-31T11:30:41.941Z,80.50
2022-12-31T11:33:50.613Z,80.02
2022-12-31T11:36:37.786Z,80.24
2022-12-31T11:39:31.255Z,80.47
2022-12-31T11:42:41.844Z,80.42
2022-12-31T11:45:31.740Z,80.26
2022-12-31T11:48:31.594Z,80.36
2022-12-31T11:51:17.343Z,80.54
2022-12-31T11:54:29.907Z,80.19
2022-12-31T11:57:24.527Z,80.25
2022-12-31T12:00:00.908Z,80.60
2022-12-31T12:02:29.352Z,80.14
2022-12-31T12:05:08.296Z,79.96
2022-12-31T12:07:39.082Z,79.83
2022-12-31T12:10:25.933Z,79.69
2022-12-31T12:12:59.618Z,79.68
2022-12-31T12:15:37.207Z,79.94
2022-12-31T12:18:13.428Z,79.97
2022-12-31T12:20:46.648Z,80.07
2022-12-31T12:23:25.857Z,80.10
2022-12-31T12:25:54.427Z,80.36
2022-12-31T12:28:26.825Z,80.51
2022-12-31T12:31:02.743Z,80.12
2022-12-31T12:33:43.718Z,79.90
2022-12-31T12:36:15.508Z,80.04
2022-12-31T12:38:44.463Z,79.90
2022-12-31T12:41:25.676Z,80.04
2022-12-31T12:44:09.498Z,80.36
2022-12-31T12:46:49.815Z,80.53
2022-12-31T12:49:25.016Z,80.65
2022-12-31T12:52:15.493Z,80.47
2022-12-31T12:55:06.592Z,80.18
2022-12-31T12:58:00.051Z,80.38
2022-12-31T13:00:40.914Z,79.89
2022-12-31T13:04:31.969Z,79.55
2022-12-31T13:07:13.823Z,79.45
2022-12-31T13:09:50.485Z,79.04
2022-12-31T13:12:49.004Z,79.11
2022-12-31T13:15:42.157Z,78.99
2022-12-31T13:18:38.148Z,79.01
2022-12-31T13:21:37.597Z,78.93
2022-12-31T13:24:40.537Z,79.08
2022-12-31T13:27:24.359Z,78.91
2022-12-31T13:29:56.621Z,79.30
2022-12-31T13:32:40.063Z,79.39
2022-12-31T13:35:29.709Z,79.46
2022-12-31T13:38:06.007Z,79.86
2022-12-31T13:40:40.589Z,79.96
2022-12-31T13:43:24.283Z,80.05
2022-12-31T13:46:05.778Z,80.38
2022-12-31T13:48:41.014Z,80.71
2022-12-31T13:51:23.237Z,80.83
2022-12-31T13:54:02.013Z,81.08
2022-12-31T13:56:37.592Z,81.26
2022-12-31T13:59:16.340Z,81.33
2022-12-31T14:01:55.169Z,81.56
2022-12-31T14:04:41.651Z,81.82
2022-12-31T14:07:12.868Z,81.91
2022-12-31T14:09:42.506Z,82.16
2022-12-31T14:12:13.916Z,82.11
2022-12-31T14:15:00.500Z,82.48
2022-12-31T14:17:36.534Z,82.51
2022-12-31T14:20:26.387Z,82.71
2022-12-31T14:23:53.208Z,82.65
2022-12-31T14:26:28.573Z,82.95
2022-12-31T14:29:19.126Z,83.04
2022-12-31T14:31:51.919Z,83.34
2022-12-31T14:34:33.717Z,83.64
2022-12-31T14:37:11.128Z,84.00
2022-12-31T14:39:59.300Z,84.09
2022-12-31T14:42:55.869Z,84.14
2022-12-31T14:45:56.709Z,84.66
2022-12-31T14:48:27.772Z,84.95
2022-12-31T14:51:01.026Z,84.94
2022-12-31T14:53:30.107Z,85.20
2022-12-31T14:55:58.452Z,85.49
2022-12-31T14:58:32.119Z,85.24
2022-12-31T15:01:06.722Z,85.27
2022-12-31T15:03:45.002Z,85.39
2022-12-31T15:06:24.027Z,85.07
2022-12-31T15:09:32.356Z,85.14
2022-12-31T15:12:21.112Z,85.14
2022-12-31T15:15:23.364Z,85.15
2022-12-31T15:18:25.341Z,85.07
2022-12-31T15:21:19.619Z,85.12
2022-12-31T15:23:50.103Z,85.12
2022-12-31T15:26:31.439Z,85.21
2022-12-31T15:29:06.268Z,85.24
2022-12-31T15:31:36.473Z,85.41
2022-12-31T15:34:07.856Z,85.48
2022-12-31T15:36:51.588Z,85.34
2022-12-31T15:39:32.465Z,85.60
2022-12-31T15:42:36.809Z,85.56
2022-12-31T15:44:56.816Z,85.61
2022-12-31T15:47:36.674Z,85.59
2022-12-31T15:50:21.256Z,85.77
2022-12-31T15:53:02.870Z,85.97
2022-12-31T15:55:46.689Z,85.94
2022-12-31T15:58:25.003Z,85.90
2022-12-31T16:01:23.730Z,85.90
2022-12-31T16:04:01.914Z,85.92
2022-12-31T16:06:34.581Z,85.96
2022-12-31T16:09:07.047Z,86.09
2022-12-31T16:11:41.226Z,85.89
2022-12-31T16:14:24.016Z,85.83
2022-12-31T16:16:58.453Z,86.07
2022-12-31T16:19:44.687Z,86.01
2022-12-31T16:22:18.879Z,86.20
2022-12-31T16:27:51.916Z,85.85
2022-12-31T16:30:31.378Z,85.59
2022-12-31T16:33:04.929Z,85.54
2022-12-31T16:35:39.159Z,85.50
2022-12-31T16:38:17.067Z,85.44
2022-12-31T16:41:02.459Z,85.36
2022-12-31T16:43:37.605Z,85.39
2022-12-31T16:46:18.079Z,85.33
2022-12-31T16:49:00.615Z,85.19
2022-12-31T16:51:37.408Z,85.13
2022-12-31T16:54:20.788Z,85.07
2022-12-31T16:56:49.388Z,84.97
2022-12-31T16:59:30.417Z,84.96
2022-12-31T17:02:05.159Z,85.10
2022-12-31T17:04:33.841Z,85.11
2022-12-31T17:07:33.541Z,85.11
2022-12-31T17:10:08.211Z,84.98
2022-12-31T17:13:25.428Z,85.03
2022-12-31T17:15:46.787Z,85.00
2022-12-31T17:18:28.869Z,84.95
2022-12-31T17:21:10.324Z,84.83
2022-12-31T17:23:44.004Z,84.80
2022-12-31T17:26:16.059Z,84.91
2022-12-31T17:28:48.021Z,84.73
2022-12-31T17:31:32.231Z,84.80
2022-12-31T17:34:12.802Z,84.71
2022-12-31T17:37:05.115Z,84.70
2022-12-31T17:39:55.185Z,84.74
2022-12-31T17:42:32.372Z,84.69
2022-12-31T17:45:22.640Z,84.69
2022-12-31T17:47:53.953Z,84.79
2022-12-31T17:50:25.216Z,84.75
2022-12-31T17:52:59.633Z,84.63
2022-12-31T17:55:29.679Z,84.88
2022-12-31T17:57:58.292Z,84.91
2022-12-31T18:00:27.987Z,84.71
2022-12-31T18:02:58.948Z,84.36
2022-12-31T18:05:34.836Z,84.46
2022-12-31T18:08:06.792Z,84.14
2022-12-31T18:10:40.402Z,84.04
2022-12-31T18:13:25.473Z,83.77
2022-12-31T18:15:56.881Z,83.66
2022-12-31T18:18:28.662Z,83.46
2022-12-31T18:21:09.441Z,83.56
2022-12-31T18:23:42.547Z,83.49
2022-12-31T18:26:15.030Z,83.23
2022-12-31T18:28:46.438Z,83.18
2022-12-31T18:31:24.360Z,83.20
2022-12-31T18:33:55.966Z,83.07
2022-12-31T18:36:26.210Z,83.00
2022-12-31T18:38:54.630Z,82.80
2022-12-31T18:41:28.023Z,82.79
2022-12-31T18:43:59.397Z,82.74
2022-12-31T18:46:28.484Z,82.78
2022-12-31T18:48:56.878Z,82.48
2022-12-31T18:51:31.727Z,82.63
2022-12-31T18:54:02.536Z,82.46
2022-12-31T18:56:31.792Z,82.31
2022-12-31T18:59:00.286Z,82.41
2022-12-31T19:01:38.139Z,82.43
2022-12-31T19:04:27.540Z,82.45
2022-12-31T19:06:57.150Z,82.23
2022-12-31T19:12:15.368Z,82.26
2022-12-31T19:14:44.187Z,82.13
2022-12-31T19:17:12.544Z,82.33
2022-12-31T19:19:41.073Z,82.21
2022-12-31T19:22:15.467Z,82.07
2022-12-31T19:24:43.875Z,82.04
2022-12-31T19:27:12.529Z,82.03
2022-12-31T19:29:40.929Z,82.04
2022-12-31T19:32:09.501Z,81.89
2022-12-31T19:34:37.915Z,81.84
2022-12-31T19:37:06.235Z,81.83
2022-12-31T19:39:34.559Z,81.96
2022-12-31T19:42:03.084Z,81.80
2022-12-31T19:44:31.404Z,81.96
2022-12-31T19:46:59.819Z,81.73
2022-12-31T19:49:28.140Z,81.88
2022-12-31T19:51:56.464Z,81.75
2022-12-31T19:54:24.814Z,81.74
2022-12-31T19:56:53.084Z,81.55
2022-12-31T19:59:21.412Z,81.68
2022-12-31T20:01:49.826Z,81.60
2022-12-31T20:04:18.313Z,81.66
2022-12-31T20:06:46.663Z,81.50
2022-12-31T20:09:15.213Z,81.53
2022-12-31T20:11:43.547Z,81.37
2022-12-31T20:14:12.141Z,81.50
2022-12-31T20:16:43.182Z,81.36
2022-12-31T20:19:11.552Z,81.19
2022-12-31T20:21:40.243Z,81.25
2022-12-31T20:24:09.204Z,81.25
2022-12-31T20:26:37.608Z,81.44
2022-12-31T20:29:06.084Z,81.36
2022-12-31T20:31:34.442Z,81.24
2022-12-31T20:34:02.794Z,81.10
2022-12-31T20:36:31.325Z,81.03
2022-12-31T20:38:59.801Z,81.33
2022-12-31T20:41:28.225Z,80.95
2022-12-31T20:43:56.615Z,81.05
2022-12-31T20:46:28.450Z,81.13
2022-12-31T20:49:00.869Z,80.89
2022-12-31T20:51:34.595Z,81.04
2022-12-31T20:54:08.967Z,80.59
2022-12-31T20:56:40.259Z,80.47
2022-12-31T20:59:10.118Z,80.41
2022-12-31T21:02:19.568Z,80.31
2022-12-31T21:04:28.452Z,80.11
2022-12-31T21:06:59.117Z,80.25
2022-12-31T21:09:27.500Z,80.00
2022-12-31T21:12:14.686Z,79.99
2022-12-31T21:14:53.676Z,80.08
2022-12-31T21:17:22.211Z,80.04
2022-12-31T21:19:50.866Z,79.95
2022-12-31T21:22:19.259Z,80.04
2022-12-31T21:24:47.650Z,79.89
2022-12-31T21:27:16.043Z,79.66
2022-12-31T21:30:16.387Z,79.41
2022-12-31T21:32:32.733Z,79.16
2022-12-31T21:35:40.289Z,79.05
2022-12-31T21:37:58.670Z,78.30
2022-12-31T21:40:30.810Z,78.12
2022-12-31T21:42:59.318Z,77.97
2022-12-31T21:45:32.148Z,78.05
2022-12-31T21:48:20.059Z,78.20
2022-12-31T21:50:51.327Z,78.06
2022-12-31T21:53:30.551Z,77.85
2022-12-31T21:56:17.110Z,77.75
2022-12-31T21:59:08.977Z,77.82
2022-12-31T22:01:56.312Z,77.85
2022-12-31T22:07:21.603Z,77.45
2022-12-31T22:09:52.833Z,77.47
2022-12-31T22:12:21.180Z,77.46
2022-12-31T22:15:14.299Z,77.37
2022-12-31T22:17:44.057Z,77.49
2022-12-31T22:20:29.527Z,77.04
2022-12-31T22:23:01.451Z,77.16
2022-12-31T22:25:30.180Z,77.04
2022-12-31T22:28:36.308Z,76.97
2022-12-31T22:30:51.154Z,76.78
2022-12-31T22:33:22.294Z,76.75
2022-12-31T22:36:18.598Z,76.87
2022-12-31T22:38:48.803Z,76.80
2022-12-31T22:41:24.675Z,76.87
2022-12-31T22:44:03.564Z,76.42
2022-12-31T22:46:36.099Z,76.12
2022-12-31T22:49:05.370Z,75.94
2022-12-31T22:51:57.397Z,75.64
2022-12-31T22:54:22.120Z,75.53
2022-12-31T22:56:50.581Z,75.24
2022-12-31T22:59:18.979Z,75.29
2022-12-31T23:01:47.574Z,74.98
2022-12-31T23:04:16.900Z,75.09
2022-12-31T23:06:45.250Z,74.98
2022-12-31T23:09:34.662Z,74.83
2022-12-31T23:12:13.994Z,74.70
2022-12-31T23:15:00.827Z,74.50
2022-12-31T23:17:48.025Z,74.23
2022-12-31T23:20:38.192Z,74.16
2022-12-31T23:23:13.415Z,74.19
2022-12-31T23:25:49.894Z,74.13
2022-12-31T23:28:26.404Z,73.81
2022-12-31T23:30:57.153Z,73.51
2022-12-31T23:33:29.815Z,73.35
2022-12-31T23:36:09.086Z,73.17
2022-12-31T23:38:42.187Z,73.08
2022-12-31T23:41:15.727Z,72.77
2022-12-31T23:43:45.374Z,72.46
2022-12-31T23:46:16.064Z,72.52
2022-12-31T23:48:44.463Z,71.84
2022-12-31T23:51:12.812Z,71.66
2022-12-31T23:53:41.404Z,71.18
2022-12-31T23:56:20.950Z,71.09
2022-12-31T23:58:59.218Z,70.85
